Time,TemperatureF,DewpointF,PressureIn,WindDirection,WindDirectionDegrees,WindSpeedMPH,WindSpeedGustMPH,Humidity,HourlyPrecipIn,Conditions,Clouds,dailyrainin,SoftwareType,DateUTC
2013-09-27 00:02:00,74.6,61.6,29.66,SE,142,3.0,3.0,64,0.00,,---,0.00,VWS V14.01,2013-09-27 05:02:00,
2013-09-27 00:07:00,74.7,61.3,29.66,South,180,3.0,4.0,63,0.00,,---,0.00,VWS V14.01,2013-09-27 05:07:00,
2013-09-27 00:12:00,74.7,61.3,29.66,SSE,157,2.0,3.0,63,0.00,,---,0.00,VWS V14.01,2013-09-27 05:12:00,
2013-09-27 00:17:00,74.6,61.2,29.66,South,183,2.0,2.0,63,0.00,,---,0.00,VWS V14.01,2013-09-27 05:17:00,
2013-09-27 00:22:00,74.4,61.4,29.66,SSE,156,2.0,4.0,64,0.00,,---,0.00,VWS V14.01,2013-09-27 05:22:00,
2013-09-27 00:27:00,74.3,61.3,29.66,SE,145,2.0,3.0,64,0.00,,---,0.00,VWS V14.01,2013-09-27 05:27:00,
2013-09-27 00:32:00,74.2,61.2,29.66,South,183,3.0,5.0,64,0.00,,---,0.00,VWS V14.01,2013-09-27 05:32:00,
2013-09-27 00:37:00,74.2,61.2,29.66,South,179,4.0,5.0,64,0.00,,---,0.00,VWS V14.01,2013-09-27 05:37:00,
2013-09-27 00:42:00,74.2,61.2,29.67,South,188,2.0,3.0,64,0.00,,---,0.00,VWS V14.01,2013-09-27 05:42:00,
2013-09-27 00:47:00,74.1,61.2,29.67,South,186,3.0,4.0,64,0.00,,---,0.00,VWS V14.01,2013-09-27 05:47:00,
2013-09-27 00:52:00,74.0,61.1,29.67,South,175,1.0,3.0,64,0.00,,---,0.00,VWS V14.01,2013-09-27 05:52:00,
2013-09-27 00:57:00,74.0,61.5,29.67,SSE,156,3.0,4.0,65,0.00,,---,0.00,VWS V14.01,2013-09-27 05:57:00,
2013-09-27 01:02:00,74.0,61.5,29.66,South,172,4.0,4.0,65,0.00,,---,0.00,VWS V14.01,2013-09-27 06:02:00,
2013-09-27 01:07:00,74.1,61.6,29.66,South,182,4.0,6.0,65,0.00,,---,0.00,VWS V14.01,2013-09-27 06:07:00,
2013-09-27 01:12:00,74.0,61.5,29.66,South,186,4.0,4.0,65,0.00,,---,0.00,VWS V14.01,2013-09-27 06:12:00,
2013-09-27 01:17:00,74.1,62.0,29.66,SSW,203,3.0,4.0,66,0.00,,---,0.00,VWS V14.01,2013-09-27 06:17:00,
2013-09-27 01:22:00,74.1,62.0,29.66,South,189,4.0,4.0,66,0.00,,---,0.00,VWS V14.01,2013-09-27 06:22:00,
2013-09-27 01:27:00,74.0,61.9,29.66,SSW,193,3.0,5.0,66,0.00,,---,0.00,VWS V14.01,2013-09-27 06:27:00,
2013-09-27 01:32:00,74.0,62.4,29.66,SSE,166,2.0,4.0,67,0.00,,---,0.00,VWS V14.01,2013-09-27 06:32:00,
2013-09-27 01:37:00,73.9,62.7,29.66,SSE,164,3.0,5.0,68,0.00,,---,0.00,VWS V14.01,2013-09-27 06:37:00,
2013-09-27 01:42:00,73.9,62.7,29.66,South,183,5.0,6.0,68,0.00,,---,0.00,VWS V14.01,2013-09-27 06:42:00,
2013-09-27 01:47:00,73.8,62.6,29.66,South,182,4.0,9.0,68,0.00,,---,0.00,VWS V14.01,2013-09-27 06:47:00,
2013-09-27 01:52:00,73.8,63.0,29.66,ESE,111,4.0,6.0,69,0.00,,---,0.00,VWS V14.01,2013-09-27 06:52:00,
2013-09-27 01:57:00,73.8,63.0,29.66,SSW,194,2.0,7.0,69,0.00,,---,0.00,VWS V14.01,2013-09-27 06:57:00,
2013-09-27 02:02:00,73.8,63.0,29.66,SSW,210,4.0,6.0,69,0.00,,---,0.00,VWS V14.01,2013-09-27 07:02:00,
2013-09-27 02:07:00,73.9,63.5,29.66,SSE,161,6.0,9.0,70,0.00,,---,0.00,VWS V14.01,2013-09-27 07:07:00,
2013-09-27 02:12:00,73.9,63.5,29.66,South,184,5.0,7.0,70,0.00,,---,0.00,VWS V14.01,2013-09-27 07:12:00,
2013-09-27 02:17:00,73.9,63.5,29.66,SE,144,4.0,4.0,70,0.00,,---,0.00,VWS V14.01,2013-09-27 07:17:00,
2013-09-27 02:22:00,73.7,63.3,29.66,SSW,200,6.0,6.0,70,0.00,,---,0.00,VWS V14.01,2013-09-27 07:22:00,
2013-09-27 02:27:00,73.7,63.7,29.66,South,182,2.0,3.0,71,0.00,,---,0.00,VWS V14.01,2013-09-27 07:27:00,
2013-09-27 02:32:00,73.6,63.6,29.66,SE,135,4.0,5.0,71,0.00,,---,0.00,VWS V14.01,2013-09-27 07:32:00,
2013-09-27 02:37:00,73.5,63.9,29.66,SE,142,3.0,4.0,72,0.00,,---,0.00,VWS V14.01,2013-09-27 07:37:00,
2013-09-27 02:42:00,73.4,63.8,29.66,South,179,2.0,4.0,72,0.00,,---,0.00,VWS V14.01,2013-09-27 07:42:00,
2013-09-27 02:47:00,73.3,63.7,29.66,South,171,2.0,4.0,72,0.00,,---,0.00,VWS V14.01,2013-09-27 07:47:00,
2013-09-27 02:49:00,73.3,64.1,29.66,SW,224,3.0,3.0,73,0.00,,---,0.00,VWS V14.01,2013-09-27 07:49:00,
2013-09-27 02:54:00,73.3,64.1,29.66,SSW,201,2.0,2.0,73,0.00,,---,0.00,VWS V14.01,2013-09-27 07:54:00,
2013-09-27 02:59:00,73.2,64.0,29.66,SSW,192,3.0,5.0,73,0.00,,---,0.00,VWS V14.01,2013-09-27 07:59:00,
2013-09-27 03:04:00,73.2,64.4,29.65,South,184,4.0,4.0,74,0.00,,---,0.00,VWS V14.01,2013-09-27 08:04:00,
2013-09-27 03:09:00,73.2,64.4,29.65,SSE,168,2.0,2.0,74,0.00,,---,0.00,VWS V14.01,2013-09-27 08:09:00,
2013-09-27 03:14:00,73.2,64.4,29.65,South,189,1.0,4.0,74,0.00,,---,0.00,VWS V14.01,2013-09-27 08:14:00,
2013-09-27 03:19:00,73.1,64.3,29.65,SSE,153,2.0,3.0,74,0.00,,---,0.00,VWS V14.01,2013-09-27 08:19:00,
2013-09-27 03:24:00,73.0,64.2,29.65,SSE,152,3.0,3.0,74,0.00,,---,0.00,VWS V14.01,2013-09-27 08:24:00,
2013-09-27 03:29:00,73.0,64.6,29.65,SSW,192,2.0,5.0,75,0.00,,---,0.00,VWS V14.01,2013-09-27 08:29:00,
2013-09-27 03:34:00,72.9,64.5,29.65,South,184,1.0,2.0,75,0.00,,---,0.00,VWS V14.01,2013-09-27 08:34:00,
2013-09-27 03:39:00,72.8,64.4,29.65,South,170,3.0,4.0,75,0.00,,---,0.00,VWS V14.01,2013-09-27 08:39:00,
2013-09-27 03:44:00,72.7,64.3,29.65,South,183,2.0,4.0,75,0.00,,---,0.00,VWS V14.01,2013-09-27 08:44:00,
2013-09-27 03:49:00,72.7,64.7,29.64,South,172,3.0,4.0,76,0.00,,---,0.00,VWS V14.01,2013-09-27 08:49:00,
2013-09-27 03:54:00,72.6,64.6,29.64,South,170,2.0,4.0,76,0.00,,---,0.00,VWS V14.01,2013-09-27 08:54:00,
2013-09-27 03:59:00,72.5,64.5,29.64,South,174,1.0,4.0,76,0.00,,---,0.00,VWS V14.01,2013-09-27 08:59:00,
2013-09-27 04:04:00,72.4,64.8,29.64,South,180,2.0,2.0,77,0.00,,---,0.00,VWS V14.01,2013-09-27 09:04:00,
2013-09-27 04:09:00,72.2,64.6,29.64,South,180,2.0,2.0,77,0.00,,---,0.00,VWS V14.01,2013-09-27 09:09:00,
2013-09-27 04:14:00,72.1,64.9,29.64,South,182,1.0,2.0,78,0.00,,---,0.00,VWS V14.01,2013-09-27 09:14:00,
2013-09-27 04:19:00,72.0,64.8,29.64,South,183,2.0,2.0,78,0.00,,---,0.00,VWS V14.01,2013-09-27 09:19:00,
2013-09-27 04:24:00,71.9,64.7,29.64,SSW,208,2.0,4.0,78,0.00,,---,0.00,VWS V14.01,2013-09-27 09:24:00,
2013-09-27 04:29:00,71.9,65.0,29.64,South,180,2.0,3.0,79,0.00,,---,0.00,VWS V14.01,2013-09-27 09:29:00,
2013-09-27 04:34:00,71.9,65.0,29.64,South,187,2.0,3.0,79,0.00,,---,0.00,VWS V14.01,2013-09-27 09:34:00,
2013-09-27 04:39:00,71.8,64.9,29.64,SW,214,5.0,5.0,79,0.00,,---,0.00,VWS V14.01,2013-09-27 09:39:00,
2013-09-27 04:44:00,71.8,64.9,29.64,SSW,192,4.0,4.0,79,0.00,,---,0.00,VWS V14.01,2013-09-27 09:44:00,
2013-09-27 04:49:00,71.8,65.3,29.64,South,170,2.0,3.0,80,0.00,,---,0.00,VWS V14.01,2013-09-27 09:49:00,
2013-09-27 04:54:00,71.9,65.4,29.64,SSW,194,1.0,3.0,80,0.00,,---,0.00,VWS V14.01,2013-09-27 09:54:00,
2013-09-27 04:59:00,71.9,65.4,29.64,South,186,3.0,3.0,80,0.00,,---,0.00,VWS V14.01,2013-09-27 09:59:00,
2013-09-27 05:04:00,71.9,65.4,29.64,SSE,149,4.0,4.0,80,0.00,,---,0.00,VWS V14.01,2013-09-27 10:04:00,
2013-09-27 05:09:00,71.9,65.4,29.64,South,180,1.0,1.0,80,0.00,,---,0.00,VWS V14.01,2013-09-27 10:09:00,
2013-09-27 05:14:00,71.8,65.3,29.64,South,187,3.0,5.0,80,0.00,,---,0.00,VWS V14.01,2013-09-27 10:14:00,
2013-09-27 05:19:00,71.8,65.7,29.64,South,170,3.0,3.0,81,0.00,,---,0.00,VWS V14.01,2013-09-27 10:19:00,
2013-09-27 05:24:00,71.8,65.7,29.65,South,182,1.0,3.0,81,0.00,,---,0.00,VWS V14.01,2013-09-27 10:24:00,
2013-09-27 05:29:00,71.8,65.7,29.65,SW,227,4.0,4.0,81,0.00,,---,0.00,VWS V14.01,2013-09-27 10:29:00,
2013-09-27 05:34:00,72.1,65.9,29.65,South,181,2.0,4.0,81,0.00,,---,0.00,VWS V14.01,2013-09-27 10:34:00,
2013-09-27 05:39:00,72.2,66.1,29.65,South,176,7.0,7.0,81,0.00,,---,0.00,VWS V14.01,2013-09-27 10:39:00,
2013-09-27 05:44:00,72.3,66.2,29.65,South,183,2.0,3.0,81,0.00,,---,0.00,VWS V14.01,2013-09-27 10:44:00,
2013-09-27 05:49:00,72.5,66.3,29.65,SSW,206,4.0,5.0,81,0.00,,---,0.00,VWS V14.01,2013-09-27 10:49:00,
2013-09-27 05:54:00,72.5,66.3,29.65,SSE,166,0.0,0.0,81,0.00,,---,0.00,VWS V14.01,2013-09-27 10:54:00,
2013-09-27 05:59:00,72.5,66.3,29.65,SE,137,3.0,3.0,81,0.00,,---,0.00,VWS V14.01,2013-09-27 10:59:00,
2013-09-27 06:04:00,72.6,66.4,29.65,WSW,237,2.0,4.0,81,0.00,,---,0.00,VWS V14.01,2013-09-27 11:04:00,
2013-09-27 06:09:00,72.5,66.3,29.65,SSE,151,3.0,4.0,81,0.00,,---,0.00,VWS V14.01,2013-09-27 11:09:00,
2013-09-27 06:14:00,72.4,66.6,29.66,South,182,1.0,2.0,82,0.00,,---,0.00,VWS V14.01,2013-09-27 11:14:00,
2013-09-27 06:19:00,72.3,66.5,29.66,South,169,1.0,3.0,82,0.00,,---,0.00,VWS V14.01,2013-09-27 11:19:00,
2013-09-27 06:24:00,72.3,66.5,29.66,SSE,157,1.0,1.0,82,0.00,,---,0.00,VWS V14.01,2013-09-27 11:24:00,
2013-09-27 06:29:00,72.2,66.8,29.66,SSE,168,0.0,1.0,83,0.00,,---,0.00,VWS V14.01,2013-09-27 11:29:00,
2013-09-27 06:34:00,72.0,66.6,29.66,SE,144,2.0,3.0,83,0.00,,---,0.00,VWS V14.01,2013-09-27 11:34:00,
2013-09-27 06:39:00,71.9,66.5,29.66,South,170,1.0,1.0,83,0.00,,---,0.00,VWS V14.01,2013-09-27 11:39:00,
2013-09-27 06:44:00,71.8,66.7,29.66,SSE,157,1.0,2.0,84,0.00,,---,0.00,VWS V14.01,2013-09-27 11:44:00,
2013-09-27 06:49:00,71.7,66.6,29.66,South,183,1.0,1.0,84,0.00,,---,0.00,VWS V14.01,2013-09-27 11:49:00,
2013-09-27 06:54:00,71.8,66.7,29.67,South,187,1.0,2.0,84,0.00,,---,0.00,VWS V14.01,2013-09-27 11:54:00,
2013-09-27 06:59:00,71.8,66.7,29.66,South,187,0.0,2.0,84,0.00,,---,0.00,VWS V14.01,2013-09-27 11:59:00,
2013-09-27 07:04:00,71.9,66.8,29.66,SSE,147,0.0,0.0,84,0.00,,---,0.00,VWS V14.01,2013-09-27 12:04:00,
2013-09-27 07:09:00,72.0,66.9,29.66,South,169,2.0,2.0,84,0.00,,---,0.00,VWS V14.01,2013-09-27 12:09:00,
2013-09-27 07:14:00,72.2,67.1,29.66,SSE,166,0.0,1.0,84,0.00,,---,0.00,VWS V14.01,2013-09-27 12:14:00,
2013-09-27 07:19:00,72.4,67.3,29.66,ESE,120,1.0,3.0,84,0.00,,---,0.00,VWS V14.01,2013-09-27 12:19:00,
2013-09-27 07:24:00,72.5,67.4,29.66,SSE,149,1.0,5.0,84,0.00,,---,0.00,VWS V14.01,2013-09-27 12:24:00,
2013-09-27 07:29:00,72.6,67.5,29.66,South,179,1.0,2.0,84,0.00,,---,0.00,VWS V14.01,2013-09-27 12:29:00,
2013-09-27 07:34:00,72.7,67.6,29.67,South,171,1.0,2.0,84,0.00,,---,0.00,VWS V14.01,2013-09-27 12:34:00,
2013-09-27 07:39:00,72.7,67.6,29.67,SSE,162,1.0,2.0,84,0.00,,---,0.00,VWS V14.01,2013-09-27 12:39:00,
2013-09-27 07:44:00,72.8,67.7,29.67,South,183,1.0,2.0,84,0.00,,---,0.00,VWS V14.01,2013-09-27 12:44:00,
2013-09-27 07:49:00,72.9,67.4,29.67,SSW,192,3.0,3.0,83,0.00,,---,0.00,VWS V14.01,2013-09-27 12:49:00,
2013-09-27 07:54:00,73.0,67.5,29.67,SSE,166,1.0,3.0,83,0.00,,---,0.00,VWS V14.01,2013-09-27 12:54:00,
2013-09-27 07:59:00,73.1,68.0,29.67,South,187,1.0,1.0,84,0.00,,---,0.00,VWS V14.01,2013-09-27 12:59:00,
2013-09-27 08:04:00,73.1,67.6,29.67,SE,142,1.0,2.0,83,0.00,,---,0.00,VWS V14.01,2013-09-27 13:04:00,
2013-09-27 08:09:00,73.2,67.7,29.67,SSW,192,1.0,2.0,83,0.00,,---,0.00,VWS V14.01,2013-09-27 13:09:00,
2013-09-27 08:14:00,73.3,67.8,29.67,SSE,153,2.0,2.0,83,0.00,,---,0.00,VWS V14.01,2013-09-27 13:14:00,
2013-09-27 08:19:00,73.3,67.8,29.67,SSE,162,3.0,4.0,83,0.00,,---,0.00,VWS V14.01,2013-09-27 13:19:00,
2013-09-27 08:24:00,73.4,67.9,29.67,SSE,163,0.0,3.0,83,0.00,,---,0.00,VWS V14.01,2013-09-27 13:24:00,
2013-09-27 08:29:00,73.5,68.0,29.67,South,170,3.0,3.0,83,0.00,,---,0.00,VWS V14.01,2013-09-27 13:29:00,
2013-09-27 08:34:00,73.7,68.2,29.67,East,91,1.0,3.0,83,0.00,,---,0.00,VWS V14.01,2013-09-27 13:34:00,
2013-09-27 08:39:00,73.8,68.3,29.68,SE,132,1.0,6.0,83,0.00,,---,0.00,VWS V14.01,2013-09-27 13:39:00,
2013-09-27 08:44:00,73.9,68.4,29.68,SSE,168,2.0,3.0,83,0.00,,---,0.00,VWS V14.01,2013-09-27 13:44:00,
2013-09-27 08:49:00,73.9,68.4,29.68,South,175,3.0,5.0,83,0.00,,---,0.00,VWS V14.01,2013-09-27 13:49:00,
2013-09-27 08:54:00,74.1,68.6,29.68,SSE,163,1.0,3.0,83,0.00,,---,0.00,VWS V14.01,2013-09-27 13:54:00,
2013-09-27 08:59:00,74.2,68.7,29.68,South,172,1.0,7.0,83,0.00,,---,0.00,VWS V14.01,2013-09-27 13:59:00,
2013-09-27 09:04:00,74.2,68.7,29.68,South,172,4.0,4.0,83,0.00,,---,0.00,VWS V14.01,2013-09-27 14:04:00,
2013-09-27 09:09:00,74.3,68.8,29.68,SSE,161,1.0,4.0,83,0.00,,---,0.00,VWS V14.01,2013-09-27 14:09:00,
2013-09-27 09:14:00,74.4,68.9,29.69,South,173,1.0,4.0,83,0.00,,---,0.00,VWS V14.01,2013-09-27 14:14:00,
2013-09-27 09:19:00,74.6,69.1,29.69,South,183,2.0,4.0,83,0.00,,---,0.00,VWS V14.01,2013-09-27 14:19:00,
2013-09-27 09:24:00,74.7,68.8,29.69,SSE,162,2.0,5.0,82,0.00,,---,0.00,VWS V14.01,2013-09-27 14:24:00,
2013-09-27 09:29:00,74.9,69.0,29.69,SSW,199,3.0,6.0,82,0.00,,---,0.00,VWS V14.01,2013-09-27 14:29:00,
2013-09-27 09:34:00,75.1,69.2,29.69,SSW,206,3.0,3.0,82,0.00,,---,0.00,VWS V14.01,2013-09-27 14:34:00,
2013-09-27 09:39:00,75.4,69.2,29.69,South,179,3.0,5.0,81,0.00,,---,0.00,VWS V14.01,2013-09-27 14:39:00,
2013-09-27 09:44:00,75.7,69.5,29.69,South,182,1.0,2.0,81,0.00,,---,0.00,VWS V14.01,2013-09-27 14:44:00,
2013-09-27 09:49:00,76.1,69.1,29.69,SSE,167,3.0,8.0,79,0.00,,---,0.00,VWS V14.01,2013-09-27 14:49:00,
2013-09-27 09:54:00,76.5,69.1,29.69,SSW,203,4.0,5.0,78,0.00,,---,0.00,VWS V14.01,2013-09-27 14:54:00,
2013-09-27 09:59:00,76.7,68.9,29.69,SSW,199,5.0,5.0,77,0.00,,---,0.00,VWS V14.01,2013-09-27 14:59:00,
2013-09-27 10:04:00,76.9,69.2,29.69,South,183,6.0,6.0,77,0.00,,---,0.00,VWS V14.01,2013-09-27 15:04:00,
2013-09-27 10:09:00,77.1,69.0,29.69,WSW,237,2.0,4.0,76,0.00,,---,0.00,VWS V14.01,2013-09-27 15:09:00,
2013-09-27 10:14:00,77.3,69.2,29.69,WSW,244,4.0,9.0,76,0.00,,---,0.00,VWS V14.01,2013-09-27 15:14:00,
2013-09-27 10:19:00,77.5,69.0,29.69,SW,225,5.0,7.0,75,0.00,,---,0.00,VWS V14.01,2013-09-27 15:19:00,
2013-09-27 10:24:00,77.8,69.2,29.69,SW,217,2.0,4.0,75,0.00,,---,0.00,VWS V14.01,2013-09-27 15:24:00,
2013-09-27 10:29:00,78.1,69.1,29.69,SW,218,5.0,5.0,74,0.00,,---,0.00,VWS V14.01,2013-09-27 15:29:00,
2013-09-27 10:34:00,78.3,69.3,29.69,WSW,242,2.0,5.0,74,0.00,,---,0.00,VWS V14.01,2013-09-27 15:34:00,
2013-09-27 10:39:00,78.5,69.1,29.70,SW,220,3.0,10.0,73,0.00,,---,0.00,VWS V14.01,2013-09-27 15:39:00,
2013-09-27 10:44:00,78.7,69.3,29.69,South,183,6.0,9.0,73,0.00,,---,0.00,VWS V14.01,2013-09-27 15:44:00,
2013-09-27 10:49:00,78.9,69.5,29.70,SSW,208,5.0,6.0,73,0.00,,---,0.00,VWS V14.01,2013-09-27 15:49:00,
2013-09-27 10:54:00,79.1,69.3,29.70,SSW,197,3.0,5.0,72,0.00,,---,0.00,VWS V14.01,2013-09-27 15:54:00,
2013-09-27 10:59:00,79.4,69.6,29.69,SW,228,3.0,10.0,72,0.00,,---,0.00,VWS V14.01,2013-09-27 15:59:00,
2013-09-27 11:04:00,79.7,69.5,29.70,South,183,4.0,8.0,71,0.00,,---,0.00,VWS V14.01,2013-09-27 16:04:00,
2013-09-27 11:09:00,80.1,69.9,29.69,SW,218,4.0,5.0,71,0.00,,---,0.00,VWS V14.01,2013-09-27 16:09:00,
2013-09-27 11:14:00,80.5,69.8,29.69,SSW,196,4.0,6.0,70,0.00,,---,0.00,VWS V14.01,2013-09-27 16:14:00,
2013-09-27 11:19:00,81.1,70.0,29.69,WSW,252,8.0,8.0,69,0.00,,---,0.00,VWS V14.01,2013-09-27 16:19:00,
2013-09-27 11:24:00,81.0,69.9,29.69,SW,231,5.0,8.0,69,0.00,,---,0.00,VWS V14.01,2013-09-27 16:24:00,
2013-09-27 11:29:00,80.9,69.8,29.69,South,187,4.0,5.0,69,0.00,,---,0.00,VWS V14.01,2013-09-27 16:29:00,
2013-09-27 11:34:00,81.1,70.0,29.69,South,182,4.0,6.0,69,0.00,,---,0.00,VWS V14.01,2013-09-27 16:34:00,
2013-09-27 11:39:00,81.4,70.3,29.69,SSW,193,7.0,7.0,69,0.00,,---,0.00,VWS V14.01,2013-09-27 16:39:00,
2013-09-27 11:44:00,81.7,69.7,29.69,SSW,208,5.0,10.0,67,0.00,,---,0.00,VWS V14.01,2013-09-27 16:44:00,
2013-09-27 11:49:00,81.8,70.2,29.69,South,185,5.0,9.0,68,0.00,,---,0.00,VWS V14.01,2013-09-27 16:49:00,
2013-09-27 11:54:00,81.8,69.8,29.68,SSW,201,5.0,8.0,67,0.00,,---,0.00,VWS V14.01,2013-09-27 16:54:00,
2013-09-27 11:59:00,81.6,70.0,29.68,WSW,239,2.0,5.0,68,0.00,,---,0.00,VWS V14.01,2013-09-27 16:59:00,
2013-09-27 12:04:00,81.6,70.0,29.68,South,189,3.0,5.0,68,0.00,,---,0.00,VWS V14.01,2013-09-27 17:04:00,
2013-09-27 12:09:00,81.5,69.9,29.68,SSW,211,5.0,7.0,68,0.00,,---,0.00,VWS V14.01,2013-09-27 17:09:00,
2013-09-27 12:14:00,81.5,69.9,29.68,South,173,7.0,8.0,68,0.00,,---,0.00,VWS V14.01,2013-09-27 17:14:00,
2013-09-27 12:19:00,81.7,70.1,29.68,SW,231,2.0,7.0,68,0.00,,---,0.00,VWS V14.01,2013-09-27 17:19:00,
2013-09-27 12:24:00,82.2,70.6,29.68,SSE,151,4.0,7.0,68,0.00,,---,0.00,VWS V14.01,2013-09-27 17:24:00,
2013-09-27 12:26:00,82.4,70.3,29.68,SW,228,4.0,4.0,67,0.00,,---,0.00,VWS V14.01,2013-09-27 17:26:00,
2013-09-27 12:31:00,82.4,69.9,29.67,SW,235,3.0,7.0,66,0.00,,---,0.00,VWS V14.01,2013-09-27 17:31:00,
2013-09-27 12:36:00,82.3,70.3,29.67,West,265,7.0,8.0,67,0.00,,---,0.00,VWS V14.01,2013-09-27 17:36:00,
2013-09-27 12:41:00,82.6,70.5,29.67,WSW,253,7.0,7.0,67,0.00,,---,0.00,VWS V14.01,2013-09-27 17:41:00,
2013-09-27 12:46:00,83.0,70.0,29.67,WSW,245,5.0,7.0,65,0.00,,---,0.00,VWS V14.01,2013-09-27 17:46:00,
2013-09-27 12:51:00,83.5,70.1,29.67,WSW,248,4.0,4.0,64,0.00,,---,0.00,VWS V14.01,2013-09-27 17:51:00,
2013-09-27 12:56:00,83.4,69.9,29.67,SSE,147,5.0,8.0,64,0.00,,---,0.00,VWS V14.01,2013-09-27 17:56:00,
2013-09-27 13:01:00,83.3,70.3,29.67,South,180,6.0,8.0,65,0.00,,---,0.00,VWS V14.01,2013-09-27 18:01:00,
2013-09-27 13:06:00,83.3,69.9,29.67,SSW,197,5.0,5.0,64,0.00,,---,0.00,VWS V14.01,2013-09-27 18:06:00,
2013-09-27 13:11:00,83.1,70.1,29.66,South,179,3.0,5.0,65,0.00,,---,0.00,VWS V14.01,2013-09-27 18:11:00,
2013-09-27 13:16:00,83.1,70.1,29.66,WSW,245,5.0,8.0,65,0.00,,---,0.00,VWS V14.01,2013-09-27 18:16:00,
2013-09-27 13:21:00,83.2,70.2,29.66,WNW,282,5.0,5.0,65,0.00,,---,0.00,VWS V14.01,2013-09-27 18:21:00,
2013-09-27 13:26:00,83.4,70.4,29.66,WSW,241,5.0,5.0,65,0.00,,---,0.00,VWS V14.01,2013-09-27 18:26:00,
2013-09-27 13:31:00,83.6,70.1,29.66,SSW,211,4.0,7.0,64,0.00,,---,0.00,VWS V14.01,2013-09-27 18:31:00,
2013-09-27 13:36:00,83.5,70.5,29.66,SSW,207,2.0,4.0,65,0.00,,---,0.00,VWS V14.01,2013-09-27 18:36:00,
2013-09-27 13:41:00,83.7,70.2,29.65,SSW,203,7.0,7.0,64,0.00,,---,0.00,VWS V14.01,2013-09-27 18:41:00,
2013-09-27 13:46:00,83.6,70.1,29.65,South,175,6.0,6.0,64,0.00,,---,0.00,VWS V14.01,2013-09-27 18:46:00,
2013-09-27 13:51:00,83.9,70.4,29.65,SSW,207,6.0,10.0,64,0.00,,---,0.00,VWS V14.01,2013-09-27 18:51:00,
2013-09-27 13:56:00,83.9,70.0,29.65,WSW,255,7.0,9.0,63,0.00,,---,0.00,VWS V14.01,2013-09-27 18:56:00,
2013-09-27 14:01:00,84.2,70.7,29.65,West,259,7.0,7.0,64,0.00,,---,0.00,VWS V14.01,2013-09-27 19:01:00,
2013-09-27 14:06:00,84.5,70.5,29.64,SW,232,6.0,6.0,63,0.00,,---,0.00,VWS V14.01,2013-09-27 19:06:00,
2013-09-27 14:11:00,84.5,70.1,29.65,SSW,206,6.0,6.0,62,0.00,,---,0.00,VWS V14.01,2013-09-27 19:11:00,
2013-09-27 14:16:00,84.6,70.6,29.64,SW,222,5.0,5.0,63,0.00,,---,0.00,VWS V14.01,2013-09-27 19:16:00,
2013-09-27 14:21:00,84.6,70.6,29.64,SSE,150,3.0,5.0,63,0.00,,---,0.00,VWS V14.01,2013-09-27 19:21:00,
2013-09-27 14:26:00,84.5,70.5,29.64,SSW,196,3.0,5.0,63,0.00,,---,0.00,VWS V14.01,2013-09-27 19:26:00,
2013-09-27 14:31:00,84.5,70.5,29.64,SW,234,6.0,6.0,63,0.00,,---,0.00,VWS V14.01,2013-09-27 19:31:00,
2013-09-27 14:36:00,84.2,70.2,29.63,South,189,3.0,5.0,63,0.00,,---,0.00,VWS V14.01,2013-09-27 19:36:00,
2013-09-27 14:41:00,84.2,70.7,29.63,SSW,197,3.0,6.0,64,0.00,,---,0.00,VWS V14.01,2013-09-27 19:41:00,
2013-09-27 14:46:00,84.4,70.4,29.63,WSW,253,4.0,9.0,63,0.00,,---,0.00,VWS V14.01,2013-09-27 19:46:00,
2013-09-27 14:51:00,84.3,70.3,29.63,SW,217,4.0,6.0,63,0.00,,---,0.00,VWS V14.01,2013-09-27 19:51:00,
2013-09-27 14:56:00,84.5,70.5,29.62,WSW,241,5.0,5.0,63,0.00,,---,0.00,VWS V14.01,2013-09-27 19:56:00,
2013-09-27 15:01:00,84.9,70.4,29.62,WSW,239,9.0,9.0,62,0.00,,---,0.00,VWS V14.01,2013-09-27 20:01:00,
2013-09-27 15:06:00,85.0,70.1,29.62,SSW,208,8.0,9.0,61,0.00,,---,0.00,VWS V14.01,2013-09-27 20:06:00,
2013-09-27 15:11:00,85.0,70.5,29.62,South,189,6.0,6.0,62,0.00,,---,0.00,VWS V14.01,2013-09-27 20:11:00,
2013-09-27 15:16:00,85.4,70.9,29.61,South,175,3.0,4.0,62,0.00,,---,0.00,VWS V14.01,2013-09-27 20:16:00,
2013-09-27 15:21:00,85.5,70.0,29.61,South,183,10.0,10.0,60,0.00,,---,0.00,VWS V14.01,2013-09-27 20:21:00,
2013-09-27 15:26:00,85.3,70.3,29.61,WSW,245,2.0,4.0,61,0.00,,---,0.00,VWS V14.01,2013-09-27 20:26:00,
2013-09-27 15:31:00,85.6,70.6,29.62,WSW,237,5.0,10.0,61,0.00,,---,0.00,VWS V14.01,2013-09-27 20:31:00,
2013-09-27 15:36:00,85.7,70.2,29.61,SW,232,6.0,9.0,60,0.00,,---,0.00,VWS V14.01,2013-09-27 20:36:00,
2013-09-27 15:41:00,86.2,71.2,29.61,SW,217,6.0,6.0,61,0.00,,---,0.00,VWS V14.01,2013-09-27 20:41:00,
2013-09-27 15:46:00,86.5,70.5,29.61,WSW,237,5.0,11.0,59,0.00,,---,0.00,VWS V14.01,2013-09-27 20:46:00,
2013-09-27 15:51:00,86.7,71.2,29.61,South,182,5.0,6.0,60,0.00,,---,0.00,VWS V14.01,2013-09-27 20:51:00,
2013-09-27 15:56:00,87.0,70.9,29.61,SW,227,3.0,7.0,59,0.00,,---,0.00,VWS V14.01,2013-09-27 20:56:00,
2013-09-27 16:01:00,87.0,70.9,29.61,SW,224,6.0,8.0,59,0.00,,---,0.00,VWS V14.01,2013-09-27 21:01:00,
2013-09-27 16:06:00,86.5,71.0,29.61,SSW,194,9.0,9.0,60,0.00,,---,0.00,VWS V14.01,2013-09-27 21:06:00,
2013-09-27 16:11:00,86.5,71.0,29.61,SSW,193,5.0,5.0,60,0.00,,---,0.00,VWS V14.01,2013-09-27 21:11:00,
2013-09-27 16:16:00,86.6,71.1,29.61,SSW,193,3.0,7.0,60,0.00,,---,0.00,VWS V14.01,2013-09-27 21:16:00,
2013-09-27 16:21:00,86.5,71.0,29.61,SSW,196,10.0,14.0,60,0.00,,---,0.00,VWS V14.01,2013-09-27 21:21:00,
2013-09-27 16:26:00,86.5,71.0,29.61,SW,214,4.0,9.0,60,0.00,,---,0.00,VWS V14.01,2013-09-27 21:26:00,
2013-09-27 16:31:00,86.5,70.5,29.61,WSW,238,5.0,7.0,59,0.00,,---,0.00,VWS V14.01,2013-09-27 21:31:00,
2013-09-27 16:36:00,86.4,70.4,29.61,South,186,5.0,6.0,59,0.00,,---,0.00,VWS V14.01,2013-09-27 21:36:00,
2013-09-27 16:41:00,86.9,70.4,29.61,SSW,206,4.0,7.0,58,0.00,,---,0.00,VWS V14.01,2013-09-27 21:41:00,
2013-09-27 16:46:00,86.7,69.7,29.61,SW,224,6.0,6.0,57,0.00,,---,0.00,VWS V14.01,2013-09-27 21:46:00,
2013-09-27 16:51:00,86.1,69.1,29.61,SW,232,4.0,10.0,57,0.00,,---,0.00,VWS V14.01,2013-09-27 21:51:00,
2013-09-27 16:56:00,85.7,69.2,29.60,South,182,3.0,9.0,58,0.00,,---,0.00,VWS V14.01,2013-09-27 21:56:00,
2013-09-27 17:01:00,86.1,69.6,29.60,WSW,239,4.0,6.0,58,0.00,,---,0.00,VWS V14.01,2013-09-27 22:01:00,
2013-09-27 17:06:00,86.4,69.9,29.60,West,262,6.0,10.0,58,0.00,,---,0.00,VWS V14.01,2013-09-27 22:06:00,
2013-09-27 17:11:00,86.6,69.6,29.60,SW,225,3.0,5.0,57,0.00,,---,0.00,VWS V14.01,2013-09-27 22:11:00,
2013-09-27 17:16:00,87.0,69.4,29.60,SSE,157,5.0,9.0,56,0.00,,---,0.00,VWS V14.01,2013-09-27 22:16:00,
2013-09-27 17:21:00,86.9,69.3,29.60,South,182,3.0,6.0,56,0.00,,---,0.00,VWS V14.01,2013-09-27 22:21:00,
2013-09-27 17:26:00,87.1,69.5,29.59,SW,227,4.0,6.0,56,0.00,,---,0.00,VWS V14.01,2013-09-27 22:26:00,
2013-09-27 17:31:00,87.0,69.4,29.59,South,189,7.0,8.0,56,0.00,,---,0.00,VWS V14.01,2013-09-27 22:31:00,
2013-09-27 17:36:00,86.5,69.0,29.59,SW,217,5.0,10.0,56,0.00,,---,0.00,VWS V14.01,2013-09-27 22:36:00,
2013-09-27 17:41:00,86.8,69.2,29.60,South,189,6.0,9.0,56,0.00,,---,0.00,VWS V14.01,2013-09-27 22:41:00,
2013-09-27 17:46:00,87.3,69.7,29.59,SW,220,4.0,5.0,56,0.00,,---,0.00,VWS V14.01,2013-09-27 22:46:00,
2013-09-27 17:51:00,87.4,69.3,29.59,SSE,166,5.0,5.0,55,0.00,,---,0.00,VWS V14.01,2013-09-27 22:51:00,
2013-09-27 17:56:00,87.5,69.4,29.59,South,186,8.0,11.0,55,0.00,,---,0.00,VWS V14.01,2013-09-27 22:56:00,
2013-09-27 18:01:00,87.2,69.1,29.59,SW,214,6.0,8.0,55,0.00,,---,0.00,VWS V14.01,2013-09-27 23:01:00,
2013-09-27 18:06:00,87.2,69.6,29.59,SSW,203,4.0,8.0,56,0.00,,---,0.00,VWS V14.01,2013-09-27 23:06:00,
2013-09-27 18:11:00,87.4,69.3,29.59,SW,220,7.0,7.0,55,0.00,,---,0.00,VWS V14.01,2013-09-27 23:11:00,
2013-09-27 18:16:00,87.5,69.4,29.59,SW,218,7.0,8.0,55,0.00,,---,0.00,VWS V14.01,2013-09-27 23:16:00,
2013-09-27 18:21:00,87.3,69.2,29.59,South,181,13.0,13.0,55,0.00,,---,0.00,VWS V14.01,2013-09-27 23:21:00,
2013-09-27 18:26:00,87.3,69.2,29.59,SSW,192,7.0,9.0,55,0.00,,---,0.00,VWS V14.01,2013-09-27 23:26:00,
2013-09-27 18:31:00,87.1,69.5,29.59,SSW,205,4.0,6.0,56,0.00,,---,0.00,VWS V14.01,2013-09-27 23:31:00,
2013-09-27 18:36:00,87.1,69.5,29.59,SSE,147,3.0,5.0,56,0.00,,---,0.00,VWS V14.01,2013-09-27 23:36:00,
2013-09-27 18:41:00,86.8,68.7,29.59,WSW,241,7.0,7.0,55,0.00,,---,0.00,VWS V14.01,2013-09-27 23:41:00,
2013-09-27 18:46:00,86.8,68.7,29.59,SW,232,5.0,9.0,55,0.00,,---,0.00,VWS V14.01,2013-09-27 23:46:00,
2013-09-27 18:51:00,86.8,69.2,29.59,SW,225,5.0,12.0,56,0.00,,---,0.00,VWS V14.01,2013-09-27 23:51:00,
2013-09-27 18:56:00,86.7,69.1,29.59,SSW,206,6.0,7.0,56,0.00,,---,0.00,VWS V14.01,2013-09-27 23:56:00,
2013-09-27 19:01:00,86.7,69.1,29.59,West,276,3.0,5.0,56,0.00,,---,0.00,VWS V14.01,2013-09-28 00:01:00,
2013-09-27 19:06:00,86.3,68.8,29.60,WSW,245,3.0,4.0,56,0.00,,---,0.00,VWS V14.01,2013-09-28 00:06:00,
2013-09-27 19:11:00,85.8,68.8,29.60,SSW,192,2.0,3.0,57,0.00,,---,0.00,VWS V14.01,2013-09-28 00:11:00,
2013-09-27 19:16:00,85.4,69.0,29.60,SW,225,3.0,4.0,58,0.00,,---,0.00,VWS V14.01,2013-09-28 00:16:00,
2013-09-27 19:21:00,85.0,69.1,29.60,South,173,5.0,5.0,59,0.00,,---,0.00,VWS V14.01,2013-09-28 00:21:00,
2013-09-27 19:26:00,84.8,68.9,29.60,South,187,3.0,5.0,59,0.00,,---,0.00,VWS V14.01,2013-09-28 00:26:00,
2013-09-27 19:31:00,84.5,68.6,29.60,SSE,161,4.0,4.0,59,0.00,,---,0.00,VWS V14.01,2013-09-28 00:31:00,
2013-09-27 19:36:00,84.3,68.4,29.60,SSW,194,6.0,7.0,59,0.00,,---,0.00,VWS V14.01,2013-09-28 00:36:00,
2013-09-27 19:41:00,84.3,67.9,29.60,SSW,208,3.0,7.0,58,0.00,,---,0.00,VWS V14.01,2013-09-28 00:41:00,
2013-09-27 19:46:00,84.2,67.8,29.61,SE,144,7.0,7.0,58,0.00,,---,0.00,VWS V14.01,2013-09-28 00:46:00,
2013-09-27 19:51:00,84.0,68.1,29.61,SSW,192,4.0,4.0,59,0.00,,---,0.00,VWS V14.01,2013-09-28 00:51:00,
2013-09-27 19:56:00,83.8,68.0,29.61,South,177,3.0,5.0,59,0.00,,---,0.00,VWS V14.01,2013-09-28 00:56:00,
2013-09-27 20:01:00,83.6,67.8,29.61,SE,126,3.0,4.0,59,0.00,,---,0.00,VWS V14.01,2013-09-28 01:01:00,
2013-09-27 20:06:00,83.4,68.1,29.61,SSW,203,2.0,3.0,60,0.00,,---,0.00,VWS V14.01,2013-09-28 01:06:00,
2013-09-27 20:11:00,83.2,67.9,29.61,SSW,204,2.0,2.0,60,0.00,,---,0.00,VWS V14.01,2013-09-28 01:11:00,
2013-09-27 20:16:00,83.0,68.2,29.61,South,189,2.0,2.0,61,0.00,,---,0.00,VWS V14.01,2013-09-28 01:16:00,
2013-09-27 20:21:00,82.8,68.0,29.61,SSW,196,2.0,3.0,61,0.00,,---,0.00,VWS V14.01,2013-09-28 01:21:00,
2013-09-27 20:26:00,82.6,68.3,29.62,South,171,2.0,3.0,62,0.00,,---,0.00,VWS V14.01,2013-09-28 01:26:00,
2013-09-27 20:31:00,82.6,68.3,29.62,South,172,2.0,2.0,62,0.00,,---,0.00,VWS V14.01,2013-09-28 01:31:00,
2013-09-27 20:37:00,82.5,68.2,29.62,SSW,193,2.0,2.0,62,0.00,,---,0.00,VWS V14.01,2013-09-28 01:37:00,
2013-09-27 20:42:00,82.4,68.1,29.62,SSE,153,2.0,2.0,62,0.00,,---,0.00,VWS V14.01,2013-09-28 01:42:00,
2013-09-27 20:47:00,82.3,68.5,29.62,SSW,203,2.0,2.0,63,0.00,,---,0.00,VWS V14.01,2013-09-28 01:47:00,
2013-09-27 20:52:00,82.2,68.4,29.62,South,175,2.0,2.0,63,0.00,,---,0.00,VWS V14.01,2013-09-28 01:52:00,
2013-09-27 20:57:00,82.1,68.3,29.62,South,170,1.0,1.0,63,0.00,,---,0.00,VWS V14.01,2013-09-28 01:57:00,
2013-09-27 21:02:00,81.9,68.5,29.62,South,179,2.0,2.0,64,0.00,,---,0.00,VWS V14.01,2013-09-28 02:02:00,
2013-09-27 21:07:00,81.7,68.3,29.62,South,188,3.0,3.0,64,0.00,,---,0.00,VWS V14.01,2013-09-28 02:07:00,
2013-09-27 21:12:00,81.4,68.5,29.61,South,182,3.0,4.0,65,0.00,,---,0.00,VWS V14.01,2013-09-28 02:12:00,
2013-09-27 21:17:00,81.4,69.0,29.61,South,175,2.0,3.0,66,0.00,,---,0.00,VWS V14.01,2013-09-28 02:17:00,
2013-09-27 21:22:00,81.3,68.9,29.61,South,183,2.0,5.0,66,0.00,,---,0.00,VWS V14.01,2013-09-28 02:22:00,
2013-09-27 21:27:00,81.3,68.9,29.61,South,172,2.0,9.0,66,0.00,,---,0.00,VWS V14.01,2013-09-28 02:27:00,
2013-09-27 21:31:00,81.3,68.9,29.61,South,180,4.0,6.0,66,0.00,,---,0.00,VWS V14.01,2013-09-28 02:31:00,
2013-09-27 21:36:00,81.2,68.8,29.62,South,189,2.0,5.0,66,0.00,,---,0.00,VWS V14.01,2013-09-28 02:36:00,
2013-09-27 21:41:00,81.2,68.8,29.63,South,177,2.0,5.0,66,0.00,,---,0.00,VWS V14.01,2013-09-28 02:41:00,
2013-09-27 21:46:00,81.1,68.7,29.63,South,189,5.0,5.0,66,0.00,,---,0.00,VWS V14.01,2013-09-28 02:46:00,
2013-09-27 21:51:00,81.0,68.6,29.63,SW,222,4.0,6.0,66,0.00,,---,0.00,VWS V14.01,2013-09-28 02:51:00,
2013-09-27 21:56:00,81.0,68.6,29.63,SSW,196,3.0,7.0,66,0.00,,---,0.00,VWS V14.01,2013-09-28 02:56:00,
2013-09-27 22:01:00,81.0,68.6,29.63,SSW,208,2.0,6.0,66,0.00,,---,0.00,VWS V14.01,2013-09-28 03:01:00,
2013-09-27 22:06:00,81.0,68.6,29.63,SSW,194,2.0,4.0,66,0.00,,---,0.00,VWS V14.01,2013-09-28 03:06:00,
2013-09-27 22:11:00,81.0,68.1,29.63,SSE,166,3.0,5.0,65,0.00,,---,0.00,VWS V14.01,2013-09-28 03:11:00,
2013-09-27 22:16:00,81.0,68.6,29.64,SSW,193,3.0,5.0,66,0.00,,---,0.00,VWS V14.01,2013-09-28 03:16:00,
2013-09-27 22:21:00,81.0,68.6,29.64,South,181,4.0,4.0,66,0.00,,---,0.00,VWS V14.01,2013-09-28 03:21:00,
2013-09-27 22:26:00,81.0,68.6,29.64,South,186,5.0,6.0,66,0.00,,---,0.00,VWS V14.01,2013-09-28 03:26:00,
2013-09-27 22:31:00,81.1,68.7,29.64,SE,135,2.0,4.0,66,0.00,,---,0.00,VWS V14.01,2013-09-28 03:31:00,
2013-09-27 22:36:00,81.1,68.7,29.64,SW,229,1.0,7.0,66,0.00,,---,0.00,VWS V14.01,2013-09-28 03:36:00,
2013-09-27 22:41:00,81.0,68.6,29.64,SSW,192,6.0,7.0,66,0.00,,---,0.00,VWS V14.01,2013-09-28 03:41:00,
2013-09-27 22:46:00,80.8,68.4,29.64,SSE,161,4.0,7.0,66,0.00,,---,0.00,VWS V14.01,2013-09-28 03:46:00,
2013-09-27 22:51:00,80.7,68.7,29.64,South,170,3.0,4.0,67,0.00,,---,0.00,VWS V14.01,2013-09-28 03:51:00,
2013-09-27 22:56:00,80.7,68.7,29.64,South,190,4.0,6.0,67,0.00,,---,0.00,VWS V14.01,2013-09-28 03:56:00,
2013-09-27 23:01:00,80.7,68.7,29.64,South,187,1.0,3.0,67,0.00,,---,0.00,VWS V14.01,2013-09-28 04:01:00,
2013-09-27 23:06:00,80.5,68.5,29.64,South,175,4.0,4.0,67,0.00,,---,0.00,VWS V14.01,2013-09-28 04:06:00,
2013-09-27 23:11:00,80.3,68.8,29.64,SSW,203,4.0,4.0,68,0.00,,---,0.00,VWS V14.01,2013-09-28 04:11:00,
2013-09-27 23:16:00,80.1,68.6,29.64,South,186,4.0,4.0,68,0.00,,---,0.00,VWS V14.01,2013-09-28 04:16:00,
2013-09-27 23:21:00,79.9,68.4,29.64,SSE,161,1.0,4.0,68,0.00,,---,0.00,VWS V14.01,2013-09-28 04:21:00,
2013-09-27 23:26:00,79.7,68.6,29.64,SSW,196,2.0,3.0,69,0.00,,---,0.00,VWS V14.01,2013-09-28 04:26:00,
2013-09-27 23:31:00,79.5,68.4,29.64,South,175,1.0,4.0,69,0.00,,---,0.00,VWS V14.01,2013-09-28 04:31:00,
2013-09-27 23:36:00,79.3,68.7,29.64,South,175,5.0,6.0,70,0.00,,---,0.00,VWS V14.01,2013-09-28 04:36:00,
2013-09-27 23:41:00,79.2,68.6,29.65,SSE,162,4.0,6.0,70,0.00,,---,0.00,VWS V14.01,2013-09-28 04:41:00,
2013-09-27 23:46:00,79.2,68.6,29.65,South,181,6.0,6.0,70,0.00,,---,0.00,VWS V14.01,2013-09-28 04:46:00,
2013-09-27 23:51:00,79.1,68.5,29.65,SSW,194,2.0,4.0,70,0.00,,---,0.00,VWS V14.01,2013-09-28 04:51:00,
2013-09-27 23:56:00,79.0,68.4,29.65,SSE,156,3.0,3.0,70,0.00,,---,0.00,VWS V14.01,2013-09-28 04:56:00,